sensor_id;sensor_type;location;lat;lon;timestamp;P1;durP1;ratioP1;P2;durP2;ratioP2
22812;SDS011;11573;51.334;3.244;2023-03-14T00:01:14;17.25;;;2.70;;
22812;SDS011;11573;51.334;3.244;2023-03-14T00:03:42;15.40;;;2.90;;
22812;SDS011;11573;51.334;3.244;2023-03-14T00:06:09;17.05;;;2.92;;
22812;SDS011;11573;51.334;3.244;2023-03-14T00:08:37;15.23;;;2.88;;
22812;SDS011;11573;51.334;3.244;2023-03-14T00:11:05;13.45;;;2.72;;
22812;SDS011;11573;51.334;3.244;2023-03-14T00:13:36;13.90;;;3.63;;
22812;SDS011;11573;51.334;3.244;2023-03-14T00:16:08;14.20;;;2.53;;
22812;SDS011;11573;51.334;3.244;2023-03-14T00:18:37;18.63;;;3.33;;
22812;SDS011;11573;51.334;3.244;2023-03-14T00:21:05;18.73;;;3.08;;
22812;SDS011;11573;51.334;3.244;2023-03-14T00:23:34;22.00;;;3.42;;
22812;SDS011;11573;51.334;3.244;2023-03-14T00:26:04;18.77;;;3.78;;
22812;SDS011;11573;51.334;3.244;2023-03-14T00:28:34;12.38;;;2.97;;
22812;SDS011;11573;51.334;3.244;2023-03-14T00:31:02;13.98;;;2.90;;
22812;SDS011;11573;51.334;3.244;2023-03-14T00:33:33;15.63;;;2.72;;
22812;SDS011;11573;51.334;3.244;2023-03-14T00:36:03;11.55;;;2.75;;
22812;SDS011;11573;51.334;3.244;2023-03-14T00:38:37;13.02;;;3.25;;
22812;SDS011;11573;51.334;3.244;2023-03-14T00:41:06;13.15;;;2.50;;
22812;SDS011;11573;51.334;3.244;2023-03-14T00:43:35;13.52;;;2.92;;
22812;SDS011;11573;51.334;3.244;2023-03-14T00:46:02;14.90;;;3.05;;
22812;SDS011;11573;51.334;3.244;2023-03-14T00:48:30;15.55;;;3.20;;
22812;SDS011;11573;51.334;3.244;2023-03-14T00:50:57;14.07;;;3.08;;
22812;SDS011;11573;51.334;3.244;2023-03-14T00:53:24;10.95;;;2.47;;
22812;SDS011;11573;51.334;3.244;2023-03-14T00:55:51;8.88;;;2.28;;
22812;SDS011;11573;51.334;3.244;2023-03-14T00:58:18;12.82;;;2.85;;
22812;SDS011;11573;51.334;3.244;2023-03-14T01:00:45;9.80;;;2.42;;
22812;SDS011;11573;51.334;3.244;2023-03-14T01:03:13;9.60;;;2.28;;
22812;SDS011;11573;51.334;3.244;2023-03-14T01:05:41;10.82;;;2.55;;
22812;SDS011;11573;51.334;3.244;2023-03-14T01:08:08;7.13;;;2.42;;
22812;SDS011;11573;51.334;3.244;2023-03-14T01:10:38;15.30;;;3.08;;
22812;SDS011;11573;51.334;3.244;2023-03-14T01:13:06;9.70;;;2.63;;
22812;SDS011;11573;51.334;3.244;2023-03-14T01:15:35;15.23;;;3.40;;
22812;SDS011;11573;51.334;3.244;2023-03-14T01:18:03;13.90;;;2.80;;
22812;SDS011;11573;51.334;3.244;2023-03-14T01:20:30;18.13;;;3.47;;
22812;SDS011;11573;51.334;3.244;2023-03-14T01:22:57;14.50;;;2.65;;
22812;SDS011;11573;51.334;3.244;2023-03-14T01:25:24;16.67;;;3.60;;
22812;SDS011;11573;51.334;3.244;2023-03-14T01:27:52;10.82;;;2.72;;
22812;SDS011;11573;51.334;3.244;2023-03-14T01:30:19;12.68;;;3.50;;
22812;SDS011;11573;51.334;3.244;2023-03-14T01:32:46;13.40;;;2.70;;
22812;SDS011;11573;51.334;3.244;2023-03-14T01:35:14;14.02;;;3.75;;
22812;SDS011;11573;51.334;3.244;2023-03-14T01:37:41;16.73;;;3.80;;
22812;SDS011;11573;51.334;3.244;2023-03-14T01:40:13;11.20;;;3.38;;
22812;SDS011;11573;51.334;3.244;2023-03-14T01:42:47;15.80;;;4.32;;
22812;SDS011;11573;51.334;3.244;2023-03-14T01:48:28;18.52;;;3.58;;
22812;SDS011;11573;51.334;3.244;2023-03-14T01:51:01;14.68;;;3.33;;
22812;SDS011;11573;51.334;3.244;2023-03-14T01:53:29;14.48;;;3.28;;
22812;SDS011;11573;51.334;3.244;2023-03-14T01:55:57;12.43;;;2.67;;
22812;SDS011;11573;51.334;3.244;2023-03-14T01:58:25;24.00;;;3.80;;
22812;SDS011;11573;51.334;3.244;2023-03-14T02:00:55;16.90;;;3.38;;
22812;SDS011;11573;51.334;3.244;2023-03-14T02:03:24;14.85;;;3.17;;
22812;SDS011;11573;51.334;3.244;2023-03-14T02:05:55;20.33;;;4.13;;
22812;SDS011;11573;51.334;3.244;2023-03-14T02:08:31;10.90;;;2.90;;
22812;SDS011;11573;51.334;3.244;2023-03-14T02:11:03;16.73;;;3.38;;
22812;SDS011;11573;51.334;3.244;2023-03-14T02:13:50;19.20;;;3.35;;
22812;SDS011;11573;51.334;3.244;2023-03-14T02:16:40;14.55;;;3.67;;
22812;SDS011;11573;51.334;3.244;2023-03-14T02:22:40;14.13;;;3.33;;
22812;SDS011;11573;51.334;3.244;2023-03-14T02:25:19;15.18;;;3.35;;
22812;SDS011;11573;51.334;3.244;2023-03-14T02:28:03;11.38;;;3.22;;
22812;SDS011;11573;51.334;3.244;2023-03-14T02:30:31;12.27;;;3.50;;
22812;SDS011;11573;51.334;3.244;2023-03-14T02:33:03;12.27;;;2.90;;
22812;SDS011;11573;51.334;3.244;2023-03-14T02:35:43;10.68;;;3.08;;
22812;SDS011;11573;51.334;3.244;2023-03-14T02:38:18;13.27;;;3.00;;
22812;SDS011;11573;51.334;3.244;2023-03-14T02:40:53;12.80;;;2.78;;
22812;SDS011;11573;51.334;3.244;2023-03-14T02:43:21;10.75;;;2.83;;
22812;SDS011;11573;51.334;3.244;2023-03-14T02:45:54;8.02;;;2.10;;
22812;SDS011;11573;51.334;3.244;2023-03-14T02:48:29;12.40;;;2.20;;
22812;SDS011;11573;51.334;3.244;2023-03-14T02:51:10;9.10;;;2.50;;
22812;SDS011;11573;51.334;3.244;2023-03-14T02:53:38;9.75;;;2.42;;
22812;SDS011;11573;51.334;3.244;2023-03-14T02:56:10;8.95;;;2.55;;
22812;SDS011;11573;51.334;3.244;2023-03-14T02:58:37;8.02;;;2.28;;
22812;SDS011;11573;51.334;3.244;2023-03-14T03:01:15;6.63;;;2.17;;
22812;SDS011;11573;51.334;3.244;2023-03-14T03:03:42;8.65;;;2.33;;
22812;SDS011;11573;51.334;3.244;2023-03-14T03:06:10;8.98;;;2.00;;
22812;SDS011;11573;51.334;3.244;2023-03-14T03:08:38;10.80;;;2.30;;
22812;SDS011;11573;51.334;3.244;2023-03-14T03:11:05;13.23;;;2.50;;
22812;SDS011;11573;51.334;3.244;2023-03-14T03:13:33;10.73;;;2.00;;
22812;SDS011;11573;51.334;3.244;2023-03-14T03:16:01;9.13;;;1.80;;
22812;SDS011;11573;51.334;3.244;2023-03-14T03:18:29;8.68;;;2.22;;
22812;SDS011;11573;51.334;3.244;2023-03-14T03:21:01;7.68;;;1.85;;
22812;SDS011;11573;51.334;3.244;2023-03-14T03:23:30;6.40;;;1.88;;
22812;SDS011;11573;51.334;3.244;2023-03-14T03:25:57;5.03;;;1.63;;
22812;SDS011;11573;51.334;3.244;2023-03-14T03:28:24;4.28;;;1.50;;
22812;SDS011;11573;51.334;3.244;2023-03-14T03:30:52;5.63;;;1.60;;
22812;SDS011;11573;51.334;3.244;2023-03-14T03:33:19;4.80;;;1.77;;
22812;SDS011;11573;51.334;3.244;2023-03-14T03:35:48;7.97;;;2.05;;
22812;SDS011;11573;51.334;3.244;2023-03-14T03:38:22;7.30;;;1.88;;
22812;SDS011;11573;51.334;3.244;2023-03-14T03:40:52;4.18;;;1.58;;
22812;SDS011;11573;51.334;3.244;2023-03-14T03:43:22;5.30;;;1.60;;
22812;SDS011;11573;51.334;3.244;2023-03-14T03:45:49;5.07;;;1.50;;
22812;SDS011;11573;51.334;3.244;2023-03-14T03:48:18;5.97;;;1.80;;
22812;SDS011;11573;51.334;3.244;2023-03-14T03:50:45;3.30;;;1.58;;
22812;SDS011;11573;51.334;3.244;2023-03-14T03:53:16;5.38;;;2.20;;
22812;SDS011;11573;51.334;3.244;2023-03-14T03:56:00;5.55;;;2.00;;
22812;SDS011;11573;51.334;3.244;2023-03-14T03:58:28;6.88;;;1.95;;
22812;SDS011;11573;51.334;3.244;2023-03-14T04:00:55;4.03;;;1.90;;
22812;SDS011;11573;51.334;3.244;2023-03-14T04:03:22;5.63;;;2.25;;
22812;SDS011;11573;51.334;3.244;2023-03-14T04:06:03;6.13;;;1.98;;
22812;SDS011;11573;51.334;3.244;2023-03-14T04:08:37;4.78;;;1.50;;
22812;SDS011;11573;51.334;3.244;2023-03-14T04:11:06;9.38;;;2.38;;
22812;SDS011;11573;51.334;3.244;2023-03-14T04:14:06;5.95;;;1.95;;
22812;SDS011;11573;51.334;3.244;2023-03-14T04:16:33;5.40;;;1.73;;
22812;SDS011;11573;51.334;3.244;2023-03-14T04:19:07;7.32;;;1.63;;
22812;SDS011;11573;51.334;3.244;2023-03-14T04:21:35;6.15;;;1.88;;
22812;SDS011;11573;51.334;3.244;2023-03-14T04:24:02;8.13;;;2.08;;
22812;SDS011;11573;51.334;3.244;2023-03-14T04:26:32;6.80;;;1.83;;
22812;SDS011;11573;51.334;3.244;2023-03-14T04:28:59;6.40;;;2.40;;
22812;SDS011;11573;51.334;3.244;2023-03-14T04:31:26;4.22;;;1.55;;
22812;SDS011;11573;51.334;3.244;2023-03-14T04:33:53;7.20;;;2.05;;
22812;SDS011;11573;51.334;3.244;2023-03-14T04:36:30;4.80;;;2.13;;
22812;SDS011;11573;51.334;3.244;2023-03-14T04:39:01;4.78;;;1.90;;
22812;SDS011;11573;51.334;3.244;2023-03-14T04:41:31;5.75;;;2.10;;
22812;SDS011;11573;51.334;3.244;2023-03-14T04:43:59;5.28;;;1.98;;
22812;SDS011;11573;51.334;3.244;2023-03-14T04:46:26;8.45;;;2.63;;
22812;SDS011;11573;51.334;3.244;2023-03-14T04:48:53;8.02;;;2.95;;
22812;SDS011;11573;51.334;3.244;2023-03-14T04:51:22;12.43;;;2.97;;
22812;SDS011;11573;51.334;3.244;2023-03-14T04:53:53;20.33;;;3.67;;
22812;SDS011;11573;51.334;3.244;2023-03-14T04:56:21;19.48;;;3.42;;
22812;SDS011;11573;51.334;3.244;2023-03-14T04:58:48;11.75;;;2.10;;
22812;SDS011;11573;51.334;3.244;2023-03-14T05:01:16;6.93;;;1.70;;
22812;SDS011;11573;51.334;3.244;2023-03-14T05:03:46;8.52;;;1.90;;
22812;SDS011;11573;51.334;3.244;2023-03-14T05:06:29;16.25;;;2.53;;
22812;SDS011;11573;51.334;3.244;2023-03-14T05:09:07;19.75;;;2.35;;
22812;SDS011;11573;51.334;3.244;2023-03-14T05:11:45;7.60;;;2.13;;
22812;SDS011;11573;51.334;3.244;2023-03-14T05:14:41;16.48;;;3.00;;
22812;SDS011;11573;51.334;3.244;2023-03-14T05:17:34;24.15;;;2.80;;
22812;SDS011;11573;51.334;3.244;2023-03-14T05:20:11;21.58;;;3.92;;
22812;SDS011;11573;51.334;3.244;2023-03-14T05:22:55;19.70;;;3.30;;
22812;SDS011;11573;51.334;3.244;2023-03-14T05:25:46;17.98;;;3.42;;
22812;SDS011;11573;51.334;3.244;2023-03-14T05:28:33;13.38;;;2.67;;
22812;SDS011;11573;51.334;3.244;2023-03-14T05:31:23;11.15;;;2.20;;
22812;SDS011;11573;51.334;3.244;2023-03-14T05:34:09;13.02;;;1.83;;
22812;SDS011;11573;51.334;3.244;2023-03-14T05:36:49;14.38;;;2.95;;
22812;SDS011;11573;51.334;3.244;2023-03-14T05:39:35;16.70;;;2.63;;
22812;SDS011;11573;51.334;3.244;2023-03-14T05:42:21;14.88;;;2.85;;
22812;SDS011;11573;51.334;3.244;2023-03-14T05:45:14;12.10;;;2.75;;
22812;SDS011;11573;51.334;3.244;2023-03-14T05:48:13;9.70;;;2.22;;
22812;SDS011;11573;51.334;3.244;2023-03-14T05:51:00;13.70;;;2.55;;
22812;SDS011;11573;51.334;3.244;2023-03-14T05:53:45;14.25;;;2.47;;
22812;SDS011;11573;51.334;3.244;2023-03-14T05:56:32;13.25;;;2.60;;
22812;SDS011;11573;51.334;3.244;2023-03-14T05:59:25;8.95;;;2.42;;
22812;SDS011;11573;51.334;3.244;2023-03-14T06:02:15;20.30;;;2.58;;
22812;SDS011;11573;51.334;3.244;2023-03-14T06:04:52;17.58;;;2.65;;
22812;SDS011;11573;51.334;3.244;2023-03-14T06:07:19;11.32;;;2.90;;
22812;SDS011;11573;51.334;3.244;2023-03-14T06:09:46;18.63;;;2.67;;
22812;SDS011;11573;51.334;3.244;2023-03-14T06:12:16;15.50;;;3.10;;
22812;SDS011;11573;51.334;3.244;2023-03-14T06:14:45;23.05;;;3.35;;
22812;SDS011;11573;51.334;3.244;2023-03-14T06:17:12;16.52;;;3.40;;
22812;SDS011;11573;51.334;3.244;2023-03-14T06:19:49;12.93;;;2.92;;
22812;SDS011;11573;51.334;3.244;2023-03-14T06:22:16;16.10;;;4.43;;
22812;SDS011;11573;51.334;3.244;2023-03-14T06:24:45;20.60;;;5.00;;
22812;SDS011;11573;51.334;3.244;2023-03-14T06:27:14;18.35;;;5.00;;
22812;SDS011;11573;51.334;3.244;2023-03-14T06:29:41;12.32;;;5.05;;
22812;SDS011;11573;51.334;3.244;2023-03-14T06:32:08;15.63;;;4.40;;
22812;SDS011;11573;51.334;3.244;2023-03-14T06:34:36;20.00;;;4.95;;
22812;SDS011;11573;51.334;3.244;2023-03-14T06:37:05;21.25;;;4.70;;
22812;SDS011;11573;51.334;3.244;2023-03-14T06:39:32;6.95;;;3.67;;
22812;SDS011;11573;51.334;3.244;2023-03-14T06:42:06;13.85;;;4.93;;
22812;SDS011;11573;51.334;3.244;2023-03-14T06:44:34;12.48;;;4.47;;
22812;SDS011;11573;51.334;3.244;2023-03-14T06:47:01;17.13;;;4.43;;
22812;SDS011;11573;51.334;3.244;2023-03-14T06:49:28;16.88;;;3.58;;
22812;SDS011;11573;51.334;3.244;2023-03-14T06:51:59;14.70;;;4.57;;
22812;SDS011;11573;51.334;3.244;2023-03-14T06:54:26;18.30;;;3.97;;
22812;SDS011;11573;51.334;3.244;2023-03-14T06:56:53;12.77;;;3.33;;
22812;SDS011;11573;51.334;3.244;2023-03-14T06:59:20;15.55;;;3.38;;
22812;SDS011;11573;51.334;3.244;2023-03-14T07:01:48;9.80;;;3.03;;
22812;SDS011;11573;51.334;3.244;2023-03-14T07:04:17;14.45;;;2.72;;
22812;SDS011;11573;51.334;3.244;2023-03-14T07:06:47;7.32;;;2.47;;
22812;SDS011;11573;51.334;3.244;2023-03-14T07:09:14;8.88;;;2.53;;
22812;SDS011;11573;51.334;3.244;2023-03-14T07:11:50;11.68;;;2.38;;
22812;SDS011;11573;51.334;3.244;2023-03-14T07:14:17;12.20;;;2.28;;
22812;SDS011;11573;51.334;3.244;2023-03-14T07:16:47;10.50;;;2.35;;
22812;SDS011;11573;51.334;3.244;2023-03-14T07:19:15;4.60;;;1.85;;
22812;SDS011;11573;51.334;3.244;2023-03-14T07:21:41;6.55;;;2.03;;
22812;SDS011;11573;51.334;3.244;2023-03-14T07:24:11;12.88;;;2.13;;
22812;SDS011;11573;51.334;3.244;2023-03-14T07:26:39;9.07;;;1.80;;
22812;SDS011;11573;51.334;3.244;2023-03-14T07:29:06;7.38;;;1.90;;
22812;SDS011;11573;51.334;3.244;2023-03-14T07:31:33;10.32;;;2.50;;
22812;SDS011;11573;51.334;3.244;2023-03-14T07:34:01;10.88;;;3.65;;
22812;SDS011;11573;51.334;3.244;2023-03-14T07:36:34;14.70;;;4.65;;
22812;SDS011;11573;51.334;3.244;2023-03-14T07:39:01;10.50;;;4.20;;
22812;SDS011;11573;51.334;3.244;2023-03-14T07:41:40;12.07;;;4.68;;
22812;SDS011;11573;51.334;3.244;2023-03-14T07:44:33;9.52;;;3.45;;
22812;SDS011;11573;51.334;3.244;2023-03-14T07:47:00;13.10;;;4.25;;
22812;SDS011;11573;51.334;3.244;2023-03-14T07:49:28;12.30;;;3.90;;
22812;SDS011;11573;51.334;3.244;2023-03-14T07:51:54;4.90;;;2.92;;
22812;SDS011;11573;51.334;3.244;2023-03-14T07:54:22;8.50;;;3.13;;
22812;SDS011;11573;51.334;3.244;2023-03-14T07:56:50;6.07;;;3.30;;
22812;SDS011;11573;51.334;3.244;2023-03-14T07:59:18;6.78;;;3.33;;
22812;SDS011;11573;51.334;3.244;2023-03-14T08:01:45;13.98;;;3.90;;
22812;SDS011;11573;51.334;3.244;2023-03-14T08:04:12;8.10;;;3.92;;
22812;SDS011;11573;51.334;3.244;2023-03-14T08:06:39;7.80;;;3.13;;
22812;SDS011;11573;51.334;3.244;2023-03-14T08:09:06;9.43;;;3.33;;
22812;SDS011;11573;51.334;3.244;2023-03-14T08:11:33;8.27;;;3.80;;
22812;SDS011;11573;51.334;3.244;2023-03-14T08:14:00;5.30;;;3.05;;
22812;SDS011;11573;51.334;3.244;2023-03-14T08:16:27;10.48;;;3.38;;
22812;SDS011;11573;51.334;3.244;2023-03-14T08:18:54;7.10;;;3.17;;
22812;SDS011;11573;51.334;3.244;2023-03-14T08:21:22;9.07;;;3.10;;
22812;SDS011;11573;51.334;3.244;2023-03-14T08:23:49;4.38;;;2.50;;
22812;SDS011;11573;51.334;3.244;2023-03-14T08:26:16;5.82;;;2.15;;
22812;SDS011;11573;51.334;3.244;2023-03-14T08:28:43;8.90;;;2.75;;
22812;SDS011;11573;51.334;3.244;2023-03-14T08:31:10;7.82;;;2.28;;
22812;SDS011;11573;51.334;3.244;2023-03-14T08:33:37;8.18;;;2.50;;
22812;SDS011;11573;51.334;3.244;2023-03-14T08:36:04;6.38;;;2.40;;
22812;SDS011;11573;51.334;3.244;2023-03-14T08:38:31;8.90;;;3.05;;
22812;SDS011;11573;51.334;3.244;2023-03-14T08:40:58;11.10;;;2.90;;
22812;SDS011;11573;51.334;3.244;2023-03-14T08:43:27;8.13;;;3.08;;
22812;SDS011;11573;51.334;3.244;2023-03-14T08:45:58;10.10;;;3.00;;
22812;SDS011;11573;51.334;3.244;2023-03-14T08:48:26;12.00;;;3.63;;
22812;SDS011;11573;51.334;3.244;2023-03-14T08:50:56;10.95;;;2.83;;
22812;SDS011;11573;51.334;3.244;2023-03-14T08:53:23;8.90;;;2.63;;
22812;SDS011;11573;51.334;3.244;2023-03-14T08:55:53;21.08;;;3.63;;
22812;SDS011;11573;51.334;3.244;2023-03-14T08:58:20;20.48;;;4.40;;
22812;SDS011;11573;51.334;3.244;2023-03-14T09:00:50;19.27;;;3.85;;
22812;SDS011;11573;51.334;3.244;2023-03-14T09:03:17;20.05;;;4.10;;
22812;SDS011;11573;51.334;3.244;2023-03-14T09:05:44;20.10;;;4.95;;
22812;SDS011;11573;51.334;3.244;2023-03-14T09:08:11;15.35;;;3.10;;
22812;SDS011;11573;51.334;3.244;2023-03-14T09:10:38;7.93;;;2.60;;
22812;SDS011;11573;51.334;3.244;2023-03-14T09:13:05;14.82;;;4.57;;
22812;SDS011;11573;51.334;3.244;2023-03-14T09:15:32;12.90;;;4.22;;
22812;SDS011;11573;51.334;3.244;2023-03-14T09:17:59;18.98;;;5.43;;
22812;SDS011;11573;51.334;3.244;2023-03-14T09:20:26;17.38;;;3.83;;
22812;SDS011;11573;51.334;3.244;2023-03-14T09:22:53;27.27;;;4.40;;
22812;SDS011;11573;51.334;3.244;2023-03-14T09:25:20;14.23;;;3.53;;
22812;SDS011;11573;51.334;3.244;2023-03-14T09:27:47;16.20;;;2.08;;
22812;SDS011;11573;51.334;3.244;2023-03-14T09:30:14;10.20;;;2.08;;
22812;SDS011;11573;51.334;3.244;2023-03-14T09:32:41;13.50;;;2.13;;
22812;SDS011;11573;51.334;3.244;2023-03-14T09:35:08;10.07;;;1.75;;
22812;SDS011;11573;51.334;3.244;2023-03-14T09:37:36;27.90;;;3.17;;
22812;SDS011;11573;51.334;3.244;2023-03-14T09:40:03;17.55;;;3.33;;
22812;SDS011;11573;51.334;3.244;2023-03-14T09:42:36;17.05;;;2.40;;
22812;SDS011;11573;51.334;3.244;2023-03-14T09:45:11;19.95;;;2.72;;
22812;SDS011;11573;51.334;3.244;2023-03-14T09:47:43;16.42;;;3.05;;
22812;SDS011;11573;51.334;3.244;2023-03-14T09:50:24;19.75;;;3.83;;
22812;SDS011;11573;51.334;3.244;2023-03-14T09:52:56;15.57;;;2.63;;
22812;SDS011;11573;51.334;3.244;2023-03-14T09:55:25;18.77;;;2.22;;
22812;SDS011;11573;51.334;3.244;2023-03-14T09:57:59;12.07;;;2.20;;
22812;SDS011;11573;51.334;3.244;2023-03-14T10:00:30;16.15;;;2.17;;
22812;SDS011;11573;51.334;3.244;2023-03-14T10:05:40;8.98;;;1.90;;
22812;SDS011;11573;51.334;3.244;2023-03-14T10:08:11;20.35;;;2.80;;
22812;SDS011;11573;51.334;3.244;2023-03-14T10:10:39;17.88;;;2.55;;
22812;SDS011;11573;51.334;3.244;2023-03-14T10:15:37;17.80;;;3.03;;
22812;SDS011;11573;51.334;3.244;2023-03-14T10:18:10;20.25;;;3.55;;
22812;SDS011;11573;51.334;3.244;2023-03-14T10:20:42;17.25;;;3.67;;
22812;SDS011;11573;51.334;3.244;2023-03-14T10:25:45;25.65;;;4.53;;
22812;SDS011;11573;51.334;3.244;2023-03-14T10:28:25;25.20;;;4.65;;
22812;SDS011;11573;51.334;3.244;2023-03-14T10:30:58;22.10;;;3.05;;
22812;SDS011;11573;51.334;3.244;2023-03-14T10:33:30;19.45;;;4.00;;
22812;SDS011;11573;51.334;3.244;2023-03-14T10:36:00;20.13;;;4.95;;
22812;SDS011;11573;51.334;3.244;2023-03-14T10:38:34;21.70;;;3.83;;
22812;SDS011;11573;51.334;3.244;2023-03-14T10:41:03;23.42;;;4.18;;
22812;SDS011;11573;51.334;3.244;2023-03-14T10:43:59;20.88;;;3.60;;
22812;SDS011;11573;51.334;3.244;2023-03-14T10:46:29;20.55;;;3.47;;
22812;SDS011;11573;51.334;3.244;2023-03-14T10:49:28;26.23;;;4.10;;
22812;SDS011;11573;51.334;3.244;2023-03-14T10:54:40;20.40;;;3.60;;
22812;SDS011;11573;51.334;3.244;2023-03-14T10:57:10;25.17;;;3.63;;
22812;SDS011;11573;51.334;3.244;2023-03-14T10:59:39;25.25;;;3.60;;
22812;SDS011;11573;51.334;3.244;2023-03-14T11:04:53;20.52;;;3.92;;
22812;SDS011;11573;51.334;3.244;2023-03-14T11:07:42;20.00;;;3.78;;
22812;SDS011;11573;51.334;3.244;2023-03-14T11:15:41;27.15;;;4.65;;
22812;SDS011;11573;51.334;3.244;2023-03-14T11:18:51;25.40;;;4.00;;
22812;SDS011;11573;51.334;3.244;2023-03-14T11:27:04;38.08;;;5.75;;
22812;SDS011;11573;51.334;3.244;2023-03-14T11:32:12;26.00;;;3.90;;
22812;SDS011;11573;51.334;3.244;2023-03-14T11:34:47;27.75;;;4.13;;
22812;SDS011;11573;51.334;3.244;2023-03-14T11:37:36;26.95;;;4.53;;
22812;SDS011;11573;51.334;3.244;2023-03-14T11:40:28;41.38;;;5.57;;
22812;SDS011;11573;51.334;3.244;2023-03-14T11:43:08;30.10;;;4.73;;
22812;SDS011;11573;51.334;3.244;2023-03-14T11:46:01;29.10;;;4.88;;
22812;SDS011;11573;51.334;3.244;2023-03-14T11:51:41;35.30;;;6.05;;
22812;SDS011;11573;51.334;3.244;2023-03-14T11:54:18;33.83;;;5.88;;
22812;SDS011;11573;51.334;3.244;2023-03-14T11:57:01;27.17;;;4.38;;
22812;SDS011;11573;51.334;3.244;2023-03-14T12:02:10;21.98;;;4.50;;
22812;SDS011;11573;51.334;3.244;2023-03-14T12:07:40;26.90;;;4.20;;
22812;SDS011;11573;51.334;3.244;2023-03-14T12:10:23;17.55;;;3.28;;
22812;SDS011;11573;51.334;3.244;2023-03-14T12:12:50;14.63;;;3.92;;
22812;SDS011;11573;51.334;3.244;2023-03-14T12:15:19;22.55;;;3.53;;
22812;SDS011;11573;51.334;3.244;2023-03-14T12:17:54;22.00;;;3.63;;
22812;SDS011;11573;51.334;3.244;2023-03-14T12:20:25;14.25;;;3.60;;
22812;SDS011;11573;51.334;3.244;2023-03-14T12:22:53;14.30;;;3.58;;
22812;SDS011;11573;51.334;3.244;2023-03-14T12:25:24;25.10;;;4.50;;
22812;SDS011;11573;51.334;3.244;2023-03-14T12:30:36;21.90;;;3.78;;
22812;SDS011;11573;51.334;3.244;2023-03-14T12:35:44;18.77;;;3.13;;
22812;SDS011;11573;51.334;3.244;2023-03-14T12:38:15;23.85;;;3.60;;
22812;SDS011;11573;51.334;3.244;2023-03-14T12:41:00;25.45;;;3.85;;
22812;SDS011;11573;51.334;3.244;2023-03-14T12:43:32;20.88;;;3.97;;
22812;SDS011;11573;51.334;3.244;2023-03-14T12:49:10;23.60;;;3.92;;
22812;SDS011;11573;51.334;3.244;2023-03-14T12:51:40;30.50;;;4.50;;
22812;SDS011;11573;51.334;3.244;2023-03-14T12:59:34;14.98;;;2.72;;
22812;SDS011;11573;51.334;3.244;2023-03-14T13:04:33;17.33;;;3.38;;
22812;SDS011;11573;51.334;3.244;2023-03-14T13:07:10;5.68;;;1.50;;
22812;SDS011;11573;51.334;3.244;2023-03-14T13:10:16;4.88;;;1.50;;
22812;SDS011;11573;51.334;3.244;2023-03-14T13:12:54;7.75;;;1.25;;
22812;SDS011;11573;51.334;3.244;2023-03-14T13:17:53;7.82;;;1.60;;
22812;SDS011;11573;51.334;3.244;2023-03-14T13:20:30;10.60;;;1.77;;
22812;SDS011;11573;51.334;3.244;2023-03-14T13:23:03;7.85;;;1.52;;
22812;SDS011;11573;51.334;3.244;2023-03-14T13:25:32;14.60;;;2.45;;
22812;SDS011;11573;51.334;3.244;2023-03-14T13:28:00;9.57;;;1.13;;
22812;SDS011;11573;51.334;3.244;2023-03-14T13:30:44;4.68;;;1.27;;
22812;SDS011;11573;51.334;3.244;2023-03-14T13:33:17;5.03;;;1.10;;
22812;SDS011;11573;51.334;3.244;2023-03-14T13:35:47;5.03;;;1.10;;
22812;SDS011;11573;51.334;3.244;2023-03-14T13:38:32;5.17;;;1.37;;
22812;SDS011;11573;51.334;3.244;2023-03-14T13:41:06;4.82;;;1.30;;
22812;SDS011;11573;51.334;3.244;2023-03-14T13:43:40;5.82;;;1.00;;
22812;SDS011;11573;51.334;3.244;2023-03-14T13:48:44;7.30;;;0.98;;
22812;SDS011;11573;51.334;3.244;2023-03-14T13:51:14;6.68;;;1.88;;
22812;SDS011;11573;51.334;3.244;2023-03-14T13:56:12;11.68;;;2.03;;
22812;SDS011;11573;51.334;3.244;2023-03-14T13:58:39;7.18;;;2.13;;
22812;SDS011;11573;51.334;3.244;2023-03-14T14:03:41;9.18;;;1.95;;
22812;SDS011;11573;51.334;3.244;2023-03-14T14:06:16;9.30;;;2.15;;
22812;SDS011;11573;51.334;3.244;2023-03-14T14:08:53;7.90;;;1.40;;
22812;SDS011;11573;51.334;3.244;2023-03-14T14:11:43;8.85;;;2.20;;
22812;SDS011;11573;51.334;3.244;2023-03-14T14:14:39;12.05;;;3.00;;
22812;SDS011;11573;51.334;3.244;2023-03-14T14:17:17;13.00;;;2.30;;
22812;SDS011;11573;51.334;3.244;2023-03-14T14:19:47;10.57;;;3.13;;
22812;SDS011;11573;51.334;3.244;2023-03-14T14:22:15;20.38;;;3.00;;
22812;SDS011;11573;51.334;3.244;2023-03-14T14:24:43;10.45;;;1.88;;
22812;SDS011;11573;51.334;3.244;2023-03-14T14:27:15;17.85;;;3.25;;
22812;SDS011;11573;51.334;3.244;2023-03-14T14:29:43;12.27;;;2.45;;
22812;SDS011;11573;51.334;3.244;2023-03-14T14:32:22;22.88;;;3.13;;
22812;SDS011;11573;51.334;3.244;2023-03-14T14:37:34;15.45;;;2.63;;
22812;SDS011;11573;51.334;3.244;2023-03-14T14:40:08;16.13;;;2.47;;
22812;SDS011;11573;51.334;3.244;2023-03-14T14:42:42;16.43;;;2.80;;
22812;SDS011;11573;51.334;3.244;2023-03-14T14:45:19;22.73;;;2.75;;
22812;SDS011;11573;51.334;3.244;2023-03-14T14:47:59;13.52;;;2.80;;
22812;SDS011;11573;51.334;3.244;2023-03-14T14:50:33;14.27;;;2.72;;
22812;SDS011;11573;51.334;3.244;2023-03-14T14:55:58;15.77;;;2.38;;
22812;SDS011;11573;51.334;3.244;2023-03-14T14:58:33;14.60;;;2.42;;
22812;SDS011;11573;51.334;3.244;2023-03-14T15:01:05;14.27;;;2.77;;
22812;SDS011;11573;51.334;3.244;2023-03-14T15:03:38;11.23;;;2.22;;
22812;SDS011;11573;51.334;3.244;2023-03-14T15:06:08;9.98;;;2.13;;
22812;SDS011;11573;51.334;3.244;2023-03-14T15:08:38;9.50;;;2.88;;
22812;SDS011;11573;51.334;3.244;2023-03-14T15:11:05;11.02;;;2.10;;
22812;SDS011;11573;51.334;3.244;2023-03-14T15:13:32;8.00;;;2.03;;
22812;SDS011;11573;51.334;3.244;2023-03-14T15:16:00;12.60;;;2.10;;
22812;SDS011;11573;51.334;3.244;2023-03-14T15:18:28;6.97;;;1.88;;
22812;SDS011;11573;51.334;3.244;2023-03-14T15:20:56;6.63;;;1.90;;
22812;SDS011;11573;51.334;3.244;2023-03-14T15:23:23;10.88;;;2.45;;
22812;SDS011;11573;51.334;3.244;2023-03-14T15:25:50;15.10;;;2.42;;
22812;SDS011;11573;51.334;3.244;2023-03-14T15:28:23;8.70;;;1.98;;
22812;SDS011;11573;51.334;3.244;2023-03-14T15:30:52;14.45;;;2.33;;
22812;SDS011;11573;51.334;3.244;2023-03-14T15:33:20;11.68;;;2.40;;
22812;SDS011;11573;51.334;3.244;2023-03-14T15:35:48;16.30;;;2.17;;
22812;SDS011;11573;51.334;3.244;2023-03-14T15:38:16;11.75;;;2.15;;
22812;SDS011;11573;51.334;3.244;2023-03-14T15:40:47;15.07;;;2.75;;
22812;SDS011;11573;51.334;3.244;2023-03-14T15:43:15;10.70;;;2.40;;
22812;SDS011;11573;51.334;3.244;2023-03-14T15:45:43;10.55;;;2.40;;
22812;SDS011;11573;51.334;3.244;2023-03-14T15:48:14;11.15;;;2.10;;
22812;SDS011;11573;51.334;3.244;2023-03-14T15:50:43;18.40;;;3.05;;
22812;SDS011;11573;51.334;3.244;2023-03-14T15:53:11;13.13;;;2.50;;
22812;SDS011;11573;51.334;3.244;2023-03-14T15:55:38;22.33;;;3.40;;
22812;SDS011;11573;51.334;3.244;2023-03-14T15:58:05;12.68;;;2.85;;
22812;SDS011;11573;51.334;3.244;2023-03-14T16:00:32;12.07;;;2.45;;
22812;SDS011;11573;51.334;3.244;2023-03-14T16:03:00;12.52;;;2.72;;
22812;SDS011;11573;51.334;3.244;2023-03-14T16:05:27;14.38;;;2.17;;
22812;SDS011;11573;51.334;3.244;2023-03-14T16:07:54;9.85;;;2.30;;
22812;SDS011;11573;51.334;3.244;2023-03-14T16:10:21;10.93;;;2.75;;
22812;SDS011;11573;51.334;3.244;2023-03-14T16:12:48;15.93;;;2.75;;
22812;SDS011;11573;51.334;3.244;2023-03-14T16:15:15;13.65;;;2.72;;
22812;SDS011;11573;51.334;3.244;2023-03-14T16:17:42;12.82;;;2.40;;
22812;SDS011;11573;51.334;3.244;2023-03-14T16:20:10;17.52;;;3.38;;